sensor_id;sensor_type;location;lat;lon;timestamp;pressure;altitude;pressure_sealevel;temperature;humidity
36138;BME280;67787;50.074;21.904;2023-07-28T04:01:44;98407.41;;;15.68;63.33
36138;BME280;67787;50.074;21.904;2023-07-28T04:04:52;98403.81;;;15.65;63.27
36138;BME280;67787;50.074;21.904;2023-07-28T04:07:31;98402.46;;;15.63;63.31
36138;BME280;67787;50.074;21.904;2023-07-28T04:10:03;98399.29;;;15.59;63.38
36138;BME280;67787;50.074;21.904;2023-07-28T04:13:37;98402.91;;;15.55;63.36
36138;BME280;67787;50.074;21.904;2023-07-28T04:16:12;98400.44;;;15.56;63.42
36138;BME280;67787;50.074;21.904;2023-07-28T04:18:43;98407.77;;;15.58;63.35
36138;BME280;67787;50.074;21.904;2023-07-28T04:21:20;98411.42;;;15.59;63.36
36138;BME280;67787;50.074;21.904;2023-07-28T04:24:48;98398.25;;;15.59;63.51
36138;BME280;67787;50.074;21.904;2023-07-28T04:27:41;98396.13;;;15.57;63.47
36138;BME280;67787;50.074;21.904;2023-07-28T04:30:38;98398.22;;;15.54;63.41
36138;BME280;67787;50.074;21.904;2023-07-28T04:37:30;98385.56;;;15.50;63.52
36138;BME280;67787;50.074;21.904;2023-07-28T04:40:14;98390.29;;;15.49;63.53
36138;BME280;67787;50.074;21.904;2023-07-28T04:42:46;98397.96;;;15.49;63.55
36138;BME280;67787;50.074;21.904;2023-07-28T04:45:47;98400.41;;;15.50;63.65
36138;BME280;67787;50.074;21.904;2023-07-28T04:49:59;98402.81;;;15.49;63.62
36138;BME280;67787;50.074;21.904;2023-07-28T04:53:05;98413.66;;;15.51;63.64
36138;BME280;67787;50.074;21.904;2023-07-28T04:59:02;98416.18;;;15.54;63.65
36138;BME280;67787;50.074;21.904;2023-07-28T05:01:32;98415.59;;;15.55;63.67
36138;BME280;67787;50.074;21.904;2023-07-28T05:04:00;98415.61;;;15.56;63.78
36138;BME280;67787;50.074;21.904;2023-07-28T05:06:29;98415.86;;;15.56;63.68
36138;BME280;67787;50.074;21.904;2023-07-28T05:08:56;98411.66;;;15.55;63.77
36138;BME280;67787;50.074;21.904;2023-07-28T05:11:29;98402.14;;;15.57;63.79
36138;BME280;67787;50.074;21.904;2023-07-28T05:13:55;98399.17;;;15.58;63.68
36138;BME280;67787;50.074;21.904;2023-07-28T05:16:23;98397.29;;;15.61;63.76
36138;BME280;67787;50.074;21.904;2023-07-28T05:18:55;98398.09;;;15.67;63.81
36138;BME280;67787;50.074;21.904;2023-07-28T05:21:27;98393.98;;;15.74;63.80
36138;BME280;67787;50.074;21.904;2023-07-28T05:23:55;98385.11;;;15.84;63.76
36138;BME280;67787;50.074;21.904;2023-07-28T05:26:22;98387.20;;;15.91;63.71
36138;BME280;67787;50.074;21.904;2023-07-28T05:28:57;98385.70;;;15.99;63.79
36138;BME280;67787;50.074;21.904;2023-07-28T05:31:40;98379.92;;;16.08;63.77
36138;BME280;67787;50.074;21.904;2023-07-28T05:34:10;98375.31;;;16.19;63.95
36138;BME280;67787;50.074;21.904;2023-07-28T05:36:39;98372.26;;;16.33;63.82
36138;BME280;67787;50.074;21.904;2023-07-28T05:39:08;98367.15;;;16.50;63.88
36138;BME280;67787;50.074;21.904;2023-07-28T05:41:43;98364.61;;;16.69;63.93
36138;BME280;67787;50.074;21.904;2023-07-28T05:44:10;98360.34;;;16.85;63.80
36138;BME280;67787;50.074;21.904;2023-07-28T05:46:39;98367.66;;;16.95;63.75
36138;BME280;67787;50.074;21.904;2023-07-28T05:49:09;98371.13;;;17.02;63.72
36138;BME280;67787;50.074;21.904;2023-07-28T05:51:38;98365.19;;;17.02;63.46
36138;BME280;67787;50.074;21.904;2023-07-28T05:54:08;98362.40;;;16.99;63.56
36138;BME280;67787;50.074;21.904;2023-07-28T05:57:11;98357.48;;;17.00;63.64
36138;BME280;67787;50.074;21.904;2023-07-28T06:03:55;98358.23;;;17.00;63.61
36138;BME280;67787;50.074;21.904;2023-07-28T06:07:18;98366.45;;;17.02;63.59
36138;BME280;67787;50.074;21.904;2023-07-28T06:10:54;98367.66;;;17.05;63.66
36138;BME280;67787;50.074;21.904;2023-07-28T06:22:24;98338.36;;;17.25;63.75
36138;BME280;67787;50.074;21.904;2023-07-28T06:24:59;98328.61;;;17.28;63.68
36138;BME280;67787;50.074;21.904;2023-07-28T06:28:51;98336.19;;;17.34;63.73
36138;BME280;67787;50.074;21.904;2023-07-28T06:32:03;98333.23;;;17.44;63.70
36138;BME280;67787;50.074;21.904;2023-07-28T06:34:30;98328.98;;;17.55;63.69
36138;BME280;67787;50.074;21.904;2023-07-28T06:36:57;98329.00;;;17.66;63.63
36138;BME280;67787;50.074;21.904;2023-07-28T06:39:30;98324.83;;;17.74;63.60
36138;BME280;67787;50.074;21.904;2023-07-28T06:43:30;98327.20;;;17.88;63.52
36138;BME280;67787;50.074;21.904;2023-07-28T06:45:57;98324.93;;;17.95;63.47
36138;BME280;67787;50.074;21.904;2023-07-28T06:48:24;98318.98;;;18.02;63.52
36138;BME280;67787;50.074;21.904;2023-07-28T06:50:51;98320.15;;;18.07;63.47
36138;BME280;67787;50.074;21.904;2023-07-28T06:53:20;98323.42;;;18.12;63.39
36138;BME280;67787;50.074;21.904;2023-07-28T06:55:53;98323.65;;;18.16;63.55
36138;BME280;67787;50.074;21.904;2023-07-28T06:58:23;98326.24;;;18.20;63.50
36138;BME280;67787;50.074;21.904;2023-07-28T07:00:50;98325.59;;;18.24;63.33
36138;BME280;67787;50.074;21.904;2023-07-28T07:03:17;98318.13;;;18.28;63.43
36138;BME280;67787;50.074;21.904;2023-07-28T07:05:44;98323.16;;;18.29;63.32
36138;BME280;67787;50.074;21.904;2023-07-28T07:08:13;98325.07;;;18.32;63.37
36138;BME280;67787;50.074;21.904;2023-07-28T07:10:47;98326.11;;;18.38;63.39
36138;BME280;67787;50.074;21.904;2023-07-28T07:13:14;98327.77;;;18.44;63.43
36138;BME280;67787;50.074;21.904;2023-07-28T07:15:41;98327.21;;;18.49;63.37
36138;BME280;67787;50.074;21.904;2023-07-28T07:18:08;98329.30;;;18.55;63.45
36138;BME280;67787;50.074;21.904;2023-07-28T07:20:36;98330.25;;;18.60;63.22
36138;BME280;67787;50.074;21.904;2023-07-28T07:23:05;98330.70;;;18.62;63.19
36138;BME280;67787;50.074;21.904;2023-07-28T07:25:32;98330.40;;;18.66;63.11
36138;BME280;67787;50.074;21.904;2023-07-28T07:27:59;98335.61;;;18.68;63.08
36138;BME280;67787;50.074;21.904;2023-07-28T07:30:26;98339.67;;;18.68;63.16
36138;BME280;67787;50.074;21.904;2023-07-28T07:32:55;98340.11;;;18.69;62.98
36138;BME280;67787;50.074;21.904;2023-07-28T07:35:22;98336.98;;;18.71;62.91
36138;BME280;67787;50.074;21.904;2023-07-28T07:37:51;98340.25;;;18.73;62.94
36138;BME280;67787;50.074;21.904;2023-07-28T07:40:18;98341.38;;;18.73;62.89
36138;BME280;67787;50.074;21.904;2023-07-28T07:42:48;98341.59;;;18.73;62.56
36138;BME280;67787;50.074;21.904;2023-07-28T07:45:16;98342.91;;;18.71;62.72
36138;BME280;67787;50.074;21.904;2023-07-28T07:47:52;98342.80;;;18.73;62.85
36138;BME280;67787;50.074;21.904;2023-07-28T07:50:21;98341.82;;;18.76;62.69
36138;BME280;67787;50.074;21.904;2023-07-28T07:52:48;98336.58;;;18.76;62.59
36138;BME280;67787;50.074;21.904;2023-07-28T07:55:18;98340.71;;;18.76;62.57
36138;BME280;67787;50.074;21.904;2023-07-28T07:57:44;98335.95;;;18.77;62.70
36138;BME280;67787;50.074;21.904;2023-07-28T08:00:12;98338.54;;;18.78;62.55
36138;BME280;67787;50.074;21.904;2023-07-28T08:02:40;98332.62;;;18.78;62.54
36138;BME280;67787;50.074;21.904;2023-07-28T08:05:12;98334.05;;;18.78;62.53
36138;BME280;67787;50.074;21.904;2023-07-28T08:07:42;98334.02;;;18.80;62.51
36138;BME280;67787;50.074;21.904;2023-07-28T08:10:13;98338.52;;;18.81;62.50
36138;BME280;67787;50.074;21.904;2023-07-28T08:12:44;98336.17;;;18.83;62.32
36138;BME280;67787;50.074;21.904;2023-07-28T08:15:13;98334.70;;;18.86;62.29
36138;BME280;67787;50.074;21.904;2023-07-28T08:17:41;98334.34;;;18.89;62.29
36138;BME280;67787;50.074;21.904;2023-07-28T08:20:08;98341.61;;;18.93;62.27
36138;BME280;67787;50.074;21.904;2023-07-28T08:22:40;98339.08;;;18.98;62.46
36138;BME280;67787;50.074;21.904;2023-07-28T08:25:08;98339.54;;;19.03;62.49
36138;BME280;67787;50.074;21.904;2023-07-28T08:27:38;98345.73;;;19.07;62.24
36138;BME280;67787;50.074;21.904;2023-07-28T08:30:09;98348.73;;;19.11;62.27
36138;BME280;67787;50.074;21.904;2023-07-28T08:32:36;98354.02;;;19.14;62.26
36138;BME280;67787;50.074;21.904;2023-07-28T08:35:03;98365.38;;;19.17;62.10
36138;BME280;67787;50.074;21.904;2023-07-28T08:37:30;98368.96;;;19.18;62.19
36138;BME280;67787;50.074;21.904;2023-07-28T08:47:44;98379.00;;;19.19;62.15
36138;BME280;67787;50.074;21.904;2023-07-28T08:50:36;98379.90;;;19.23;62.30
36138;BME280;67787;50.074;21.904;2023-07-28T08:53:03;98379.86;;;19.24;62.18
36138;BME280;67787;50.074;21.904;2023-07-28T08:55:29;98382.72;;;19.18;62.13
36138;BME280;67787;50.074;21.904;2023-07-28T08:58:27;98390.36;;;19.15;62.13
36138;BME280;67787;50.074;21.904;2023-07-28T09:00:56;98391.84;;;19.09;62.15
36138;BME280;67787;50.074;21.904;2023-07-28T09:03:29;98396.86;;;19.01;62.15
36138;BME280;67787;50.074;21.904;2023-07-28T09:06:01;98402.09;;;18.95;62.15
36138;BME280;67787;50.074;21.904;2023-07-28T09:08:32;98406.09;;;18.90;62.32
36138;BME280;67787;50.074;21.904;2023-07-28T09:11:03;98408.94;;;18.88;62.24
36138;BME280;67787;50.074;21.904;2023-07-28T09:13:39;98408.88;;;18.87;62.39
36138;BME280;67787;50.074;21.904;2023-07-28T09:16:32;98409.25;;;18.78;62.44
36138;BME280;67787;50.074;21.904;2023-07-28T09:19:06;98412.95;;;18.71;62.46
36138;BME280;67787;50.074;21.904;2023-07-28T09:21:37;98412.23;;;18.68;62.60
36138;BME280;67787;50.074;21.904;2023-07-28T09:24:07;98413.70;;;18.65;62.58
36138;BME280;67787;50.074;21.904;2023-07-28T09:29:49;98421.42;;;18.46;62.82
36138;BME280;67787;50.074;21.904;2023-07-28T09:32:36;98418.14;;;18.37;62.92
36138;BME280;67787;50.074;21.904;2023-07-28T09:35:06;98420.77;;;18.25;63.01
36138;BME280;67787;50.074;21.904;2023-07-28T09:37:46;98418.19;;;18.16;63.18
36138;BME280;67787;50.074;21.904;2023-07-28T09:40:18;98417.02;;;18.09;63.12
36138;BME280;67787;50.074;21.904;2023-07-28T09:42:48;98413.86;;;18.02;63.22
36138;BME280;67787;50.074;21.904;2023-07-28T09:45:20;98413.38;;;17.96;63.39
36138;BME280;67787;50.074;21.904;2023-07-28T09:48:12;98411.20;;;17.94;63.63
36138;BME280;67787;50.074;21.904;2023-07-28T09:50:42;98415.73;;;17.90;63.70
36138;BME280;67787;50.074;21.904;2023-07-28T09:53:35;98414.59;;;17.83;63.49
36138;BME280;67787;50.074;21.904;2023-07-28T09:56:15;98414.66;;;17.75;63.72
36138;BME280;67787;50.074;21.904;2023-07-28T09:59:42;98422.42;;;17.70;64.13
36138;BME280;67787;50.074;21.904;2023-07-28T10:02:47;98417.66;;;17.57;64.08
36138;BME280;67787;50.074;21.904;2023-07-28T10:05:20;98416.68;;;17.56;64.12
36138;BME280;67787;50.074;21.904;2023-07-28T10:07:53;98416.22;;;17.57;64.21
36138;BME280;67787;50.074;21.904;2023-07-28T10:10:25;98413.16;;;17.59;64.74
36138;BME280;67787;50.074;21.904;2023-07-28T10:12:57;98404.11;;;17.58;64.56
36138;BME280;67787;50.074;21.904;2023-07-28T10:15:31;98400.67;;;17.61;64.80
36138;BME280;67787;50.074;21.904;2023-07-28T10:18:00;98392.80;;;17.63;64.99
36138;BME280;67787;50.074;21.904;2023-07-28T10:20:40;98386.79;;;17.64;65.18
36138;BME280;67787;50.074;21.904;2023-07-28T10:25:10;98382.92;;;17.64;65.12
36138;BME280;67787;50.074;21.904;2023-07-28T10:39:21;98389.81;;;18.01;65.85
36138;BME280;67787;50.074;21.904;2023-07-28T10:45:12;98382.31;;;18.24;66.23
36138;BME280;67787;50.074;21.904;2023-07-28T10:48:00;98377.19;;;18.36;66.38
36138;BME280;67787;50.074;21.904;2023-07-28T10:51:09;98376.94;;;18.47;65.98
36138;BME280;67787;50.074;21.904;2023-07-28T10:53:36;98381.04;;;18.61;66.10
36138;BME280;67787;50.074;21.904;2023-07-28T10:56:03;98373.53;;;18.73;66.26
36138;BME280;67787;50.074;21.904;2023-07-28T10:58:42;98373.75;;;18.84;66.16
36138;BME280;67787;50.074;21.904;2023-07-28T11:01:34;98374.57;;;18.91;66.24
36138;BME280;67787;50.074;21.904;2023-07-28T11:04:20;98372.63;;;18.94;66.22
36138;BME280;67787;50.074;21.904;2023-07-28T11:06:53;98376.35;;;18.97;66.28
36138;BME280;67787;50.074;21.904;2023-07-28T11:09:22;98368.41;;;18.99;66.22
36138;BME280;67787;50.074;21.904;2023-07-28T11:11:51;98373.30;;;19.00;66.33
36138;BME280;67787;50.074;21.904;2023-07-28T11:14:20;98372.27;;;19.04;66.39
36138;BME280;67787;50.074;21.904;2023-07-28T11:16:47;98367.70;;;19.03;66.42
36138;BME280;67787;50.074;21.904;2023-07-28T11:19:14;98368.31;;;19.03;66.52
36138;BME280;67787;50.074;21.904;2023-07-28T11:21:42;98370.89;;;19.01;66.54
36138;BME280;67787;50.074;21.904;2023-07-28T11:24:11;98378.20;;;18.97;66.27
36138;BME280;67787;50.074;21.904;2023-07-28T11:26:39;98376.82;;;18.91;66.69
36138;BME280;67787;50.074;21.904;2023-07-28T11:29:06;98380.60;;;18.87;66.66
36138;BME280;67787;50.074;21.904;2023-07-28T11:31:33;98386.48;;;18.80;66.63
36138;BME280;67787;50.074;21.904;2023-07-28T11:34:00;98394.24;;;18.70;66.51
36138;BME280;67787;50.074;21.904;2023-07-28T11:36:30;98389.67;;;18.61;66.65
36138;BME280;67787;50.074;21.904;2023-07-28T11:39:04;98390.27;;;18.52;66.66
36138;BME280;67787;50.074;21.904;2023-07-28T11:41:33;98394.54;;;18.42;66.74
36138;BME280;67787;50.074;21.904;2023-07-28T11:44:01;98384.94;;;18.39;66.71
36138;BME280;67787;50.074;21.904;2023-07-28T11:46:36;98387.57;;;18.33;66.82
36138;BME280;67787;50.074;21.904;2023-07-28T11:57:17;98383.55;;;18.20;67.24
36138;BME280;67787;50.074;21.904;2023-07-28T12:00:07;98385.08;;;18.17;67.31
36138;BME280;67787;50.074;21.904;2023-07-28T12:02:36;98382.65;;;18.18;67.31
36138;BME280;67787;50.074;21.904;2023-07-28T12:12:08;98387.52;;;18.13;67.50
36138;BME280;67787;50.074;21.904;2023-07-28T12:15:26;98386.75;;;18.13;67.29
36138;BME280;67787;50.074;21.904;2023-07-28T12:18:15;98388.48;;;18.12;67.42
36138;BME280;67787;50.074;21.904;2023-07-28T12:20:49;98384.52;;;18.16;67.64
36138;BME280;67787;50.074;21.904;2023-07-28T12:23:20;98383.05;;;18.18;67.58
36138;BME280;67787;50.074;21.904;2023-07-28T12:25:53;98382.30;;;18.21;67.56
36138;BME280;67787;50.074;21.904;2023-07-28T12:28:24;98378.95;;;18.28;67.53
36138;BME280;67787;50.074;21.904;2023-07-28T12:30:53;98371.04;;;18.35;67.58
36138;BME280;67787;50.074;21.904;2023-07-28T12:33:27;98368.61;;;18.38;67.62
36138;BME280;67787;50.074;21.904;2023-07-28T12:35:57;98366.70;;;18.43;67.72
36138;BME280;67787;50.074;21.904;2023-07-28T12:38:51;98369.60;;;18.49;67.87
36138;BME280;67787;50.074;21.904;2023-07-28T12:41:20;98372.67;;;18.54;67.86
36138;BME280;67787;50.074;21.904;2023-07-28T12:44:39;98378.02;;;18.55;67.66
36138;BME280;67787;50.074;21.904;2023-07-28T12:48:18;98373.41;;;18.59;67.87
36138;BME280;67787;50.074;21.904;2023-07-28T12:50:50;98373.42;;;18.62;67.90
36138;BME280;67787;50.074;21.904;2023-07-28T12:54:03;98372.06;;;18.65;67.90
36138;BME280;67787;50.074;21.904;2023-07-28T12:56:44;98370.91;;;18.72;67.93
36138;BME280;67787;50.074;21.904;2023-07-28T12:59:58;98377.48;;;18.77;67.99
36138;BME280;67787;50.074;21.904;2023-07-28T13:02:28;98376.77;;;18.81;67.90
36138;BME280;67787;50.074;21.904;2023-07-28T13:04:55;98381.55;;;18.86;67.90
36138;BME280;67787;50.074;21.904;2023-07-28T13:07:22;98381.30;;;18.88;67.96
36138;BME280;67787;50.074;21.904;2023-07-28T13:09:52;98378.15;;;18.89;68.03
36138;BME280;67787;50.074;21.904;2023-07-28T13:12:19;98381.20;;;18.94;67.96
36138;BME280;67787;50.074;21.904;2023-07-28T13:14:49;98385.73;;;18.98;67.87
36138;BME280;67787;50.074;21.904;2023-07-28T13:17:15;98386.60;;;19.05;68.01
36138;BME280;67787;50.074;21.904;2023-07-28T13:19:44;98384.64;;;19.12;68.18
36138;BME280;67787;50.074;21.904;2023-07-28T13:22:11;98388.02;;;19.17;68.04
36138;BME280;67787;50.074;21.904;2023-07-28T13:24:41;98390.27;;;19.18;67.94
36138;BME280;67787;50.074;21.904;2023-07-28T13:27:10;98390.55;;;19.20;68.05
36138;BME280;67787;50.074;21.904;2023-07-28T13:29:36;98393.91;;;19.22;67.92
36138;BME280;67787;50.074;21.904;2023-07-28T13:32:03;98395.33;;;19.27;68.09
36138;BME280;67787;50.074;21.904;2023-07-28T13:35:12;98395.08;;;19.33;68.20
36138;BME280;67787;50.074;21.904;2023-07-28T13:37:41;98394.14;;;19.41;68.26
36138;BME280;67787;50.074;21.904;2023-07-28T13:40:10;98396.04;;;19.49;68.18
36138;BME280;67787;50.074;21.904;2023-07-28T13:42:39;98396.77;;;19.57;68.18
36138;BME280;67787;50.074;21.904;2023-07-28T13:45:07;98397.30;;;19.63;68.21
36138;BME280;67787;50.074;21.904;2023-07-28T13:47:38;98401.01;;;19.72;68.24
36138;BME280;67787;50.074;21.904;2023-07-28T13:50:09;98405.34;;;19.81;68.24
36138;BME280;67787;50.074;21.904;2023-07-28T13:52:36;98403.09;;;19.88;68.20
36138;BME280;67787;50.074;21.904;2023-07-28T13:55:03;98394.27;;;19.92;68.05
36138;BME280;67787;50.074;21.904;2023-07-28T13:57:34;98390.66;;;19.92;68.06
36138;BME280;67787;50.074;21.904;2023-07-28T14:00:02;98384.88;;;19.95;68.29
36138;BME280;67787;50.074;21.904;2023-07-28T14:02:29;98380.63;;;19.98;68.09
36138;BME280;67787;50.074;21.904;2023-07-28T14:05:00;98389.04;;;20.00;68.23
36138;BME280;67787;50.074;21.904;2023-07-28T14:07:26;98388.85;;;20.02;68.12
36138;BME280;67787;50.074;21.904;2023-07-28T14:09:58;98388.50;;;20.03;68.08
36138;BME280;67787;50.074;21.904;2023-07-28T14:12:25;98388.36;;;20.05;68.12
36138;BME280;67787;50.074;21.904;2023-07-28T14:14:54;98391.39;;;20.09;67.99
36138;BME280;67787;50.074;21.904;2023-07-28T14:17:21;98394.63;;;20.12;67.96
36138;BME280;67787;50.074;21.904;2023-07-28T14:19:49;98392.08;;;20.16;68.15
36138;BME280;67787;50.074;21.904;2023-07-28T14:22:18;98392.23;;;20.24;68.11
36138;BME280;67787;50.074;21.904;2023-07-28T14:24:47;98386.25;;;20.29;68.21
36138;BME280;67787;50.074;21.904;2023-07-28T14:27:13;98379.94;;;20.33;68.07
36138;BME280;67787;50.074;21.904;2023-07-28T14:29:40;98379.80;;;20.34;68.17
36138;BME280;67787;50.074;21.904;2023-07-28T14:32:07;98378.87;;;20.37;68.19
36138;BME280;67787;50.074;21.904;2023-07-28T14:35:46;98380.27;;;20.42;68.20
36138;BME280;67787;50.074;21.904;2023-07-28T14:38:39;98370.06;;;20.43;68.23
36138;BME280;67787;50.074;21.904;2023-07-28T14:41:06;98375.65;;;20.42;67.98
36138;BME280;67787;50.074;21.904;2023-07-28T14:43:32;98368.95;;;20.41;68.09
36138;BME280;67787;50.074;21.904;2023-07-28T14:46:00;98367.80;;;20.41;68.17
36138;BME280;67787;50.074;21.904;2023-07-28T14:48:27;98366.23;;;20.42;68.13
36138;BME280;67787;50.074;21.904;2023-07-28T14:50:54;98365.95;;;20.43;68.10
36138;BME280;67787;50.074;21.904;2023-07-28T14:53:32;98367.16;;;20.45;68.32
36138;BME280;67787;50.074;21.904;2023-07-28T14:55:59;98362.88;;;20.47;68.16
36138;BME280;67787;50.074;21.904;2023-07-28T14:58:27;98358.40;;;20.48;68.19
36138;BME280;67787;50.074;21.904;2023-07-28T15:00:56;98358.33;;;20.49;68.17
36138;BME280;67787;50.074;21.904;2023-07-28T15:03:26;98355.94;;;20.51;68.16
36138;BME280;67787;50.074;21.904;2023-07-28T15:05:54;98358.48;;;20.52;68.17
36138;BME280;67787;50.074;21.904;2023-07-28T15:08:21;98354.84;;;20.54;68.13
36138;BME280;67787;50.074;21.904;2023-07-28T15:10:48;98352.20;;;20.56;68.27
36138;BME280;67787;50.074;21.904;2023-07-28T15:13:16;98353.21;;;20.58;68.07
36138;BME280;67787;50.074;21.904;2023-07-28T15:15:43;98354.06;;;20.60;68.30
36138;BME280;67787;50.074;21.904;2023-07-28T15:18:10;98349.96;;;20.63;68.13
36138;BME280;67787;50.074;21.904;2023-07-28T15:20:37;98353.52;;;20.64;68.28
36138;BME280;67787;50.074;21.904;2023-07-28T15:23:03;98347.80;;;20.65;68.02
36138;BME280;67787;50.074;21.904;2023-07-28T15:25:30;98348.60;;;20.68;68.11
36138;BME280;67787;50.074;21.904;2023-07-28T15:28:00;98348.15;;;20.68;68.14
36138;BME280;67787;50.074;21.904;2023-07-28T15:30:27;98345.23;;;20.72;68.19
36138;BME280;67787;50.074;21.904;2023-07-28T15:32:57;98339.17;;;20.74;68.23
36138;BME280;67787;50.074;21.904;2023-07-28T15:35:26;98334.95;;;20.76;68.11
36138;BME280;67787;50.074;21.904;2023-07-28T15:37:55;98341.31;;;20.79;68.27
36138;BME280;67787;50.074;21.904;2023-07-28T15:40:23;98333.73;;;20.79;68.07
36138;BME280;67787;50.074;21.904;2023-07-28T15:42:50;98340.55;;;20.80;68.00
36138;BME280;67787;50.074;21.904;2023-07-28T15:45:17;98341.48;;;20.83;68.10
36138;BME280;67787;50.074;21.904;2023-07-28T15:47:43;98343.02;;;20.88;68.20
36138;BME280;67787;50.074;21.904;2023-07-28T15:50:10;98343.08;;;20.95;68.03
36138;BME280;67787;50.074;21.904;2023-07-28T15:52:38;98341.95;;;21.02;68.17
36138;BME280;67787;50.074;21.904;2023-07-28T15:55:05;98336.88;;;21.08;68.19
36138;BME280;67787;50.074;21.904;2023-07-28T15:57:32;98334.44;;;21.16;68.08
36138;BME280;67787;50.074;21.904;2023-07-28T15:59:59;98334.98;;;21.24;67.90
36138;BME280;67787;50.074;21.904;2023-07-28T16:02:25;98334.23;;;21.30;67.93
36138;BME280;67787;50.074;21.904;2023-07-28T16:04:52;98341.59;;;21.36;67.93
36138;BME280;67787;50.074;21.904;2023-07-28T16:07:20;98346.48;;;21.41;67.94
36138;BME280;67787;50.074;21.904;2023-07-28T16:09:49;98345.38;;;21.46;67.96
36138;BME280;67787;50.074;21.904;2023-07-28T16:12:16;98345.65;;;21.49;67.88
36138;BME280;67787;50.074;21.904;2023-07-28T16:14:43;98343.46;;;21.54;67.84
36138;BME280;67787;50.074;21.904;2023-07-28T16:17:10;98345.95;;;21.57;67.89
36138;BME280;67787;50.074;21.904;2023-07-28T16:19:36;98344.36;;;21.62;67.84
36138;BME280;67787;50.074;21.904;2023-07-28T16:22:04;98345.74;;;21.66;67.73
36138;BME280;67787;50.074;21.904;2023-07-28T16:24:31;98352.23;;;21.70;67.93
36138;BME280;67787;50.074;21.904;2023-07-28T16:26:58;98349.49;;;21.74;67.63
36138;BME280;67787;50.074;21.904;2023-07-28T16:29:24;98351.68;;;21.77;67.86
36138;BME280;67787;50.074;21.904;2023-07-28T16:31:51;98349.19;;;21.81;67.62
36138;BME280;67787;50.074;21.904;2023-07-28T16:34:18;98349.66;;;21.84;67.78
36138;BME280;67787;50.074;21.904;2023-07-28T16:36:46;98349.95;;;21.86;67.56
36138;BME280;67787;50.074;21.904;2023-07-28T16:39:13;98342.95;;;21.87;67.70
36138;BME280;67787;50.074;21.904;2023-07-28T16:41:39;98342.73;;;21.89;67.66
36138;BME280;67787;50.074;21.904;2023-07-28T16:44:06;98336.86;;;21.90;67.73
36138;BME280;67787;50.074;21.904;2023-07-28T16:46:33;98335.39;;;21.87;67.68
36138;BME280;67787;50.074;21.904;2023-07-28T16:49:00;98328.36;;;21.81;67.48
36138;BME280;67787;50.074;21.904;2023-07-28T16:51:28;98334.98;;;21.78;67.51
36138;BME280;67787;50.074;21.904;2023-07-28T16:53:55;98332.98;;;21.75;67.45
36138;BME280;67787;50.074;21.904;2023-07-28T16:56:21;98332.14;;;21.66;67.42
36138;BME280;67787;50.074;21.904;2023-07-28T16:58:48;98326.14;;;21.60;67.29
36138;BME280;67787;50.074;21.904;2023-07-28T17:01:15;98324.44;;;21.53;67.32
36138;BME280;67787;50.074;21.904;2023-07-28T17:03:44;98321.07;;;21.46;67.34
36138;BME280;67787;50.074;21.904;2023-07-28T17:06:12;98329.15;;;21.39;67.31
36138;BME280;67787;50.074;21.904;2023-07-28T17:08:39;98326.92;;;21.34;67.41
36138;BME280;67787;50.074;21.904;2023-07-28T17:11:06;98332.43;;;21.30;67.32
36138;BME280;67787;50.074;21.904;2023-07-28T17:13:35;98343.09;;;21.24;67.32
36138;BME280;67787;50.074;21.904;2023-07-28T17:16:02;98342.17;;;21.16;67.24
36138;BME280;67787;50.074;21.904;2023-07-28T17:18:29;98344.44;;;21.08;67.29
36138;BME280;67787;50.074;21.904;2023-07-28T17:20:57;98346.10;;;21.01;67.19
36138;BME280;67787;50.074;21.904;2023-07-28T17:23:23;98342.41;;;20.91;67.33
36138;BME280;67787;50.074;21.904;2023-07-28T17:25:50;98347.67;;;20.84;67.21
36138;BME280;67787;50.074;21.904;2023-07-28T17:28:19;98345.49;;;20.77;67.26
36138;BME280;67787;50.074;21.904;2023-07-28T17:30:46;98348.05;;;20.71;67.30
36138;BME280;67787;50.074;21.904;2023-07-28T17:33:13;98349.74;;;20.66;67.42
36138;BME280;67787;50.074;21.904;2023-07-28T17:35:41;98341.90;;;20.58;67.16
36138;BME280;67787;50.074;21.904;2023-07-28T17:38:10;98341.34;;;20.59;67.26
36138;BME280;67787;50.074;21.904;2023-07-28T17:40:36;98341.98;;;20.61;67.34
36138;BME280;67787;50.074;21.904;2023-07-28T17:43:03;98341.86;;;20.53;67.38
36138;BME280;67787;50.074;21.904;2023-07-28T17:45:30;98346.59;;;20.48;67.34
36138;BME280;67787;50.074;21.904;2023-07-28T17:48:03;98344.86;;;20.43;67.41
36138;BME280;67787;50.074;21.904;2023-07-28T17:50:34;98347.58;;;20.35;67.39
36138;BME280;67787;50.074;21.904;2023-07-28T17:53:03;98346.68;;;20.31;67.56
36138;BME280;67787;50.074;21.904;2023-07-28T17:55:31;98347.70;;;20.26;67.46
36138;BME280;67787;50.074;21.904;2023-07-28T17:58:03;98343.83;;;20.21;67.42
36138;BME280;67787;50.074;21.904;2023-07-28T18:01:15;98356.48;;;20.13;67.64
36138;BME280;67787;50.074;21.904;2023-07-28T18:03:43;98357.16;;;20.08;67.53
36138;BME280;67787;50.074;21.904;2023-07-28T18:06:11;98359.80;;;20.04;67.61
36138;BME280;67787;50.074;21.904;2023-07-28T18:08:38;98361.38;;;20.00;67.69
36138;BME280;67787;50.074;21.904;2023-07-28T18:11:05;98367.02;;;19.95;67.60
36138;BME280;67787;50.074;21.904;2023-07-28T18:13:32;98370.58;;;19.88;67.62
36138;BME280;67787;50.074;21.904;2023-07-28T18:16:00;98372.08;;;19.83;67.63
36138;BME280;67787;50.074;21.904;2023-07-28T18:18:30;98373.85;;;19.78;67.72
36138;BME280;67787;50.074;21.904;2023-07-28T18:20:57;98379.39;;;19.73;67.68
36138;BME280;67787;50.074;21.904;2023-07-28T18:23:29;98387.98;;;19.67;67.80
36138;BME280;67787;50.074;21.904;2023-07-28T18:25:56;98392.26;;;19.61;67.83
36138;BME280;67787;50.074;21.904;2023-07-28T18:28:24;98387.30;;;19.59;67.82
36138;BME280;67787;50.074;21.904;2023-07-28T18:30:56;98385.71;;;19.56;67.92